sensor_id;sensor_type;location;lat;lon;timestamp;P1;durP1;ratioP1;P2;durP2;ratioP2
18905;SDS011;9585;51.018;4.282;2023-02-20T00:00:21;15.50;;;9.63;;
18905;SDS011;9585;51.018;4.282;2023-02-20T00:02:49;17.50;;;8.82;;
18905;SDS011;9585;51.018;4.282;2023-02-20T00:05:17;17.95;;;9.30;;
18905;SDS011;9585;51.018;4.282;2023-02-20T00:07:45;17.70;;;9.33;;
18905;SDS011;9585;51.018;4.282;2023-02-20T00:10:14;15.37;;;10.03;;
18905;SDS011;9585;51.018;4.282;2023-02-20T00:12:41;19.20;;;9.27;;
18905;SDS011;9585;51.018;4.282;2023-02-20T00:15:09;14.80;;;9.35;;
18905;SDS011;9585;51.018;4.282;2023-02-20T00:17:37;16.65;;;8.90;;
18905;SDS011;9585;51.018;4.282;2023-02-20T00:20:05;19.47;;;10.00;;
18905;SDS011;9585;51.018;4.282;2023-02-20T00:22:33;16.27;;;9.35;;
18905;SDS011;9585;51.018;4.282;2023-02-20T00:25:00;15.93;;;9.05;;
18905;SDS011;9585;51.018;4.282;2023-02-20T00:27:29;17.00;;;9.70;;
18905;SDS011;9585;51.018;4.282;2023-02-20T00:29:57;14.83;;;8.97;;
18905;SDS011;9585;51.018;4.282;2023-02-20T00:32:24;18.47;;;9.40;;
18905;SDS011;9585;51.018;4.282;2023-02-20T00:34:52;19.77;;;9.53;;
18905;SDS011;9585;51.018;4.282;2023-02-20T00:37:19;21.13;;;9.57;;
18905;SDS011;9585;51.018;4.282;2023-02-20T00:39:46;19.27;;;9.87;;
18905;SDS011;9585;51.018;4.282;2023-02-20T00:42:14;17.90;;;10.10;;
18905;SDS011;9585;51.018;4.282;2023-02-20T00:44:43;18.57;;;9.57;;
18905;SDS011;9585;51.018;4.282;2023-02-20T00:47:10;18.10;;;10.20;;
18905;SDS011;9585;51.018;4.282;2023-02-20T00:49:39;15.13;;;9.83;;
18905;SDS011;9585;51.018;4.282;2023-02-20T00:52:06;19.03;;;9.83;;
18905;SDS011;9585;51.018;4.282;2023-02-20T00:54:33;14.97;;;9.10;;
18905;SDS011;9585;51.018;4.282;2023-02-20T00:57:01;18.05;;;10.18;;
18905;SDS011;9585;51.018;4.282;2023-02-20T00:59:28;17.02;;;9.85;;
18905;SDS011;9585;51.018;4.282;2023-02-20T01:01:57;19.52;;;10.90;;
18905;SDS011;9585;51.018;4.282;2023-02-20T01:04:24;21.60;;;11.55;;
18905;SDS011;9585;51.018;4.282;2023-02-20T01:06:52;23.17;;;12.00;;
18905;SDS011;9585;51.018;4.282;2023-02-20T01:09:19;22.60;;;12.80;;
18905;SDS011;9585;51.018;4.282;2023-02-20T01:11:47;24.92;;;12.80;;
18905;SDS011;9585;51.018;4.282;2023-02-20T01:14:14;19.57;;;12.83;;
18905;SDS011;9585;51.018;4.282;2023-02-20T01:16:45;24.20;;;13.57;;
18905;SDS011;9585;51.018;4.282;2023-02-20T01:19:14;22.70;;;12.95;;
18905;SDS011;9585;51.018;4.282;2023-02-20T01:21:42;23.95;;;12.18;;
18905;SDS011;9585;51.018;4.282;2023-02-20T01:24:09;20.60;;;12.95;;
18905;SDS011;9585;51.018;4.282;2023-02-20T01:26:37;21.65;;;12.82;;
18905;SDS011;9585;51.018;4.282;2023-02-20T01:29:06;21.58;;;13.25;;
18905;SDS011;9585;51.018;4.282;2023-02-20T01:31:33;23.45;;;12.98;;
18905;SDS011;9585;51.018;4.282;2023-02-20T01:34:01;20.45;;;12.15;;
18905;SDS011;9585;51.018;4.282;2023-02-20T01:36:30;21.42;;;12.93;;
18905;SDS011;9585;51.018;4.282;2023-02-20T01:38:58;22.15;;;13.27;;
18905;SDS011;9585;51.018;4.282;2023-02-20T01:41:25;21.80;;;12.48;;
18905;SDS011;9585;51.018;4.282;2023-02-20T01:43:52;21.17;;;11.30;;
18905;SDS011;9585;51.018;4.282;2023-02-20T01:49:12;19.95;;;11.30;;
18905;SDS011;9585;51.018;4.282;2023-02-20T01:51:44;20.67;;;11.80;;
18905;SDS011;9585;51.018;4.282;2023-02-20T01:54:16;19.35;;;11.60;;
18905;SDS011;9585;51.018;4.282;2023-02-20T01:56:46;21.50;;;11.95;;
18905;SDS011;9585;51.018;4.282;2023-02-20T01:59:15;18.35;;;11.30;;
18905;SDS011;9585;51.018;4.282;2023-02-20T02:01:43;17.70;;;11.48;;
18905;SDS011;9585;51.018;4.282;2023-02-20T02:04:11;21.27;;;11.07;;
18905;SDS011;9585;51.018;4.282;2023-02-20T02:06:39;17.88;;;10.90;;
18905;SDS011;9585;51.018;4.282;2023-02-20T02:09:12;19.50;;;10.50;;
18905;SDS011;9585;51.018;4.282;2023-02-20T02:11:44;22.05;;;10.52;;
18905;SDS011;9585;51.018;4.282;2023-02-20T02:14:15;14.57;;;10.02;;
18905;SDS011;9585;51.018;4.282;2023-02-20T02:16:43;16.80;;;9.60;;
18905;SDS011;9585;51.018;4.282;2023-02-20T02:19:19;19.73;;;9.50;;
18905;SDS011;9585;51.018;4.282;2023-02-20T02:22:08;13.32;;;9.23;;
18905;SDS011;9585;51.018;4.282;2023-02-20T02:25:10;16.60;;;9.30;;
18905;SDS011;9585;51.018;4.282;2023-02-20T02:27:51;15.50;;;10.00;;
18905;SDS011;9585;51.018;4.282;2023-02-20T02:30:45;15.95;;;9.50;;
18905;SDS011;9585;51.018;4.282;2023-02-20T02:33:33;16.50;;;9.43;;
18905;SDS011;9585;51.018;4.282;2023-02-20T02:39:15;15.15;;;8.48;;
18905;SDS011;9585;51.018;4.282;2023-02-20T02:41:51;14.25;;;8.70;;
18905;SDS011;9585;51.018;4.282;2023-02-20T02:44:23;23.42;;;8.75;;
18905;SDS011;9585;51.018;4.282;2023-02-20T02:46:57;17.63;;;8.63;;
18905;SDS011;9585;51.018;4.282;2023-02-20T02:49:30;16.98;;;8.32;;
18905;SDS011;9585;51.018;4.282;2023-02-20T02:52:05;17.63;;;8.70;;
18905;SDS011;9585;51.018;4.282;2023-02-20T02:54:34;14.30;;;7.75;;
18905;SDS011;9585;51.018;4.282;2023-02-20T02:57:16;12.65;;;7.88;;
18905;SDS011;9585;51.018;4.282;2023-02-20T02:59:47;15.63;;;7.88;;
18905;SDS011;9585;51.018;4.282;2023-02-20T03:02:19;15.63;;;8.18;;
18905;SDS011;9585;51.018;4.282;2023-02-20T03:04:48;16.60;;;7.93;;
18905;SDS011;9585;51.018;4.282;2023-02-20T03:07:20;15.95;;;8.80;;
18905;SDS011;9585;51.018;4.282;2023-02-20T03:09:49;14.90;;;7.63;;
18905;SDS011;9585;51.018;4.282;2023-02-20T03:12:20;15.68;;;7.65;;
18905;SDS011;9585;51.018;4.282;2023-02-20T03:14:50;16.63;;;7.75;;
18905;SDS011;9585;51.018;4.282;2023-02-20T03:17:41;16.17;;;8.40;;
18905;SDS011;9585;51.018;4.282;2023-02-20T03:20:15;11.68;;;7.32;;
18905;SDS011;9585;51.018;4.282;2023-02-20T03:22:46;17.92;;;8.27;;
18905;SDS011;9585;51.018;4.282;2023-02-20T03:25:18;15.63;;;8.40;;
18905;SDS011;9585;51.018;4.282;2023-02-20T03:27:49;20.65;;;9.02;;
18905;SDS011;9585;51.018;4.282;2023-02-20T03:30:21;18.15;;;9.10;;
18905;SDS011;9585;51.018;4.282;2023-02-20T03:32:54;19.17;;;9.00;;
18905;SDS011;9585;51.018;4.282;2023-02-20T03:35:44;12.23;;;7.80;;
18905;SDS011;9585;51.018;4.282;2023-02-20T03:38:33;16.60;;;8.05;;
18905;SDS011;9585;51.018;4.282;2023-02-20T03:41:21;19.50;;;8.50;;
18905;SDS011;9585;51.018;4.282;2023-02-20T03:44:08;13.05;;;7.18;;
18905;SDS011;9585;51.018;4.282;2023-02-20T03:46:38;16.02;;;7.70;;
18905;SDS011;9585;51.018;4.282;2023-02-20T03:49:09;15.93;;;7.90;;
18905;SDS011;9585;51.018;4.282;2023-02-20T03:51:39;16.92;;;6.97;;
18905;SDS011;9585;51.018;4.282;2023-02-20T03:54:08;17.83;;;7.60;;
18905;SDS011;9585;51.018;4.282;2023-02-20T03:56:36;17.50;;;6.70;;
18905;SDS011;9585;51.018;4.282;2023-02-20T03:59:07;10.00;;;6.45;;
18905;SDS011;9585;51.018;4.282;2023-02-20T04:01:40;16.45;;;7.28;;
18905;SDS011;9585;51.018;4.282;2023-02-20T04:04:09;14.98;;;6.72;;
18905;SDS011;9585;51.018;4.282;2023-02-20T04:06:42;17.08;;;6.82;;
18905;SDS011;9585;51.018;4.282;2023-02-20T04:09:13;17.40;;;7.03;;
18905;SDS011;9585;51.018;4.282;2023-02-20T04:11:47;13.55;;;6.10;;
18905;SDS011;9585;51.018;4.282;2023-02-20T04:14:18;11.50;;;6.47;;
18905;SDS011;9585;51.018;4.282;2023-02-20T04:16:48;14.98;;;5.97;;
18905;SDS011;9585;51.018;4.282;2023-02-20T04:19:20;13.30;;;6.45;;
18905;SDS011;9585;51.018;4.282;2023-02-20T04:21:48;17.00;;;6.60;;
18905;SDS011;9585;51.018;4.282;2023-02-20T04:24:22;14.27;;;6.35;;
18905;SDS011;9585;51.018;4.282;2023-02-20T04:26:53;10.73;;;5.75;;
18905;SDS011;9585;51.018;4.282;2023-02-20T04:29:21;10.95;;;5.82;;
18905;SDS011;9585;51.018;4.282;2023-02-20T04:31:49;13.30;;;5.90;;
18905;SDS011;9585;51.018;4.282;2023-02-20T04:34:16;15.18;;;6.75;;
18905;SDS011;9585;51.018;4.282;2023-02-20T04:36:43;13.38;;;5.82;;
18905;SDS011;9585;51.018;4.282;2023-02-20T04:39:12;15.65;;;6.18;;
18905;SDS011;9585;51.018;4.282;2023-02-20T04:41:41;16.27;;;5.78;;
18905;SDS011;9585;51.018;4.282;2023-02-20T04:44:08;9.65;;;5.70;;
18905;SDS011;9585;51.018;4.282;2023-02-20T04:46:53;11.10;;;5.47;;
18905;SDS011;9585;51.018;4.282;2023-02-20T04:49:21;10.02;;;5.43;;
18905;SDS011;9585;51.018;4.282;2023-02-20T04:51:48;15.25;;;5.75;;
18905;SDS011;9585;51.018;4.282;2023-02-20T04:54:15;12.90;;;5.70;;
18905;SDS011;9585;51.018;4.282;2023-02-20T04:56:45;11.85;;;5.57;;
18905;SDS011;9585;51.018;4.282;2023-02-20T04:59:12;11.43;;;5.90;;
18905;SDS011;9585;51.018;4.282;2023-02-20T05:01:40;13.13;;;5.95;;
18905;SDS011;9585;51.018;4.282;2023-02-20T05:04:12;14.27;;;5.75;;
18905;SDS011;9585;51.018;4.282;2023-02-20T05:06:40;11.63;;;5.38;;
18905;SDS011;9585;51.018;4.282;2023-02-20T05:09:09;15.07;;;6.07;;
18905;SDS011;9585;51.018;4.282;2023-02-20T05:11:37;12.25;;;5.15;;
18905;SDS011;9585;51.018;4.282;2023-02-20T05:14:06;7.97;;;5.25;;
18905;SDS011;9585;51.018;4.282;2023-02-20T05:16:33;14.48;;;5.55;;
18905;SDS011;9585;51.018;4.282;2023-02-20T05:19:02;12.93;;;5.35;;
18905;SDS011;9585;51.018;4.282;2023-02-20T05:21:30;13.50;;;5.47;;
18905;SDS011;9585;51.018;4.282;2023-02-20T05:24:15;8.65;;;4.95;;
18905;SDS011;9585;51.018;4.282;2023-02-20T05:26:42;9.55;;;4.88;;
18905;SDS011;9585;51.018;4.282;2023-02-20T05:29:11;9.07;;;5.55;;
18905;SDS011;9585;51.018;4.282;2023-02-20T05:31:39;11.68;;;5.40;;
18905;SDS011;9585;51.018;4.282;2023-02-20T05:34:07;12.95;;;5.90;;
18905;SDS011;9585;51.018;4.282;2023-02-20T05:36:35;7.97;;;4.70;;
18905;SDS011;9585;51.018;4.282;2023-02-20T05:39:02;9.30;;;5.35;;
18905;SDS011;9585;51.018;4.282;2023-02-20T05:41:30;11.68;;;5.75;;
18905;SDS011;9585;51.018;4.282;2023-02-20T05:43:59;13.68;;;5.65;;
18905;SDS011;9585;51.018;4.282;2023-02-20T05:46:28;13.35;;;6.07;;
18905;SDS011;9585;51.018;4.282;2023-02-20T05:48:56;8.82;;;4.75;;
18905;SDS011;9585;51.018;4.282;2023-02-20T05:51:24;12.48;;;5.25;;
18905;SDS011;9585;51.018;4.282;2023-02-20T05:53:55;11.10;;;5.15;;
18905;SDS011;9585;51.018;4.282;2023-02-20T05:56:24;9.95;;;5.03;;
18905;SDS011;9585;51.018;4.282;2023-02-20T05:58:52;13.23;;;5.07;;
18905;SDS011;9585;51.018;4.282;2023-02-20T06:01:19;9.27;;;4.93;;
18905;SDS011;9585;51.018;4.282;2023-02-20T06:03:50;10.52;;;4.88;;
18905;SDS011;9585;51.018;4.282;2023-02-20T06:06:17;12.45;;;4.82;;
18905;SDS011;9585;51.018;4.282;2023-02-20T06:08:45;11.25;;;4.75;;
18905;SDS011;9585;51.018;4.282;2023-02-20T06:11:12;7.72;;;4.43;;
18905;SDS011;9585;51.018;4.282;2023-02-20T06:13:40;10.98;;;4.88;;
18905;SDS011;9585;51.018;4.282;2023-02-20T06:16:09;9.15;;;4.88;;
18905;SDS011;9585;51.018;4.282;2023-02-20T06:18:37;10.90;;;5.13;;
18905;SDS011;9585;51.018;4.282;2023-02-20T06:21:08;12.10;;;4.95;;
18905;SDS011;9585;51.018;4.282;2023-02-20T06:23:37;12.60;;;5.30;;
18905;SDS011;9585;51.018;4.282;2023-02-20T06:26:05;11.35;;;5.72;;
18905;SDS011;9585;51.018;4.282;2023-02-20T06:28:33;11.70;;;5.00;;
18905;SDS011;9585;51.018;4.282;2023-02-20T06:31:00;9.25;;;5.15;;
18905;SDS011;9585;51.018;4.282;2023-02-20T06:33:28;12.45;;;5.47;;
18905;SDS011;9585;51.018;4.282;2023-02-20T06:35:55;14.60;;;5.80;;
18905;SDS011;9585;51.018;4.282;2023-02-20T06:38:24;8.13;;;5.50;;
18905;SDS011;9585;51.018;4.282;2023-02-20T06:40:52;16.98;;;6.70;;
18905;SDS011;9585;51.018;4.282;2023-02-20T06:43:19;11.18;;;5.88;;
18905;SDS011;9585;51.018;4.282;2023-02-20T06:45:47;10.68;;;5.50;;
18905;SDS011;9585;51.018;4.282;2023-02-20T06:48:14;12.80;;;5.78;;
18905;SDS011;9585;51.018;4.282;2023-02-20T06:50:46;13.45;;;6.40;;
18905;SDS011;9585;51.018;4.282;2023-02-20T06:53:19;10.20;;;6.05;;
18905;SDS011;9585;51.018;4.282;2023-02-20T06:55:48;12.50;;;6.65;;
18905;SDS011;9585;51.018;4.282;2023-02-20T06:58:15;13.63;;;6.60;;
18905;SDS011;9585;51.018;4.282;2023-02-20T07:00:43;10.70;;;6.40;;
18905;SDS011;9585;51.018;4.282;2023-02-20T07:03:10;14.20;;;6.90;;
18905;SDS011;9585;51.018;4.282;2023-02-20T07:05:37;15.35;;;7.07;;
18905;SDS011;9585;51.018;4.282;2023-02-20T07:08:05;14.15;;;7.00;;
18905;SDS011;9585;51.018;4.282;2023-02-20T07:10:32;14.48;;;6.97;;
18905;SDS011;9585;51.018;4.282;2023-02-20T07:13:01;13.60;;;7.13;;
18905;SDS011;9585;51.018;4.282;2023-02-20T07:15:30;14.50;;;6.90;;
18905;SDS011;9585;51.018;4.282;2023-02-20T07:17:57;12.68;;;6.78;;
18905;SDS011;9585;51.018;4.282;2023-02-20T07:20:24;11.75;;;6.50;;
18905;SDS011;9585;51.018;4.282;2023-02-20T07:22:52;15.38;;;7.05;;
18905;SDS011;9585;51.018;4.282;2023-02-20T07:25:19;15.90;;;6.53;;
18905;SDS011;9585;51.018;4.282;2023-02-20T07:27:46;11.77;;;6.55;;
18905;SDS011;9585;51.018;4.282;2023-02-20T07:30:15;13.48;;;6.18;;
18905;SDS011;9585;51.018;4.282;2023-02-20T07:32:43;12.48;;;6.57;;
18905;SDS011;9585;51.018;4.282;2023-02-20T07:35:10;12.50;;;6.22;;
18905;SDS011;9585;51.018;4.282;2023-02-20T07:37:38;12.75;;;6.40;;
18905;SDS011;9585;51.018;4.282;2023-02-20T07:40:06;10.63;;;6.70;;
18905;SDS011;9585;51.018;4.282;2023-02-20T07:42:33;13.75;;;6.78;;
18905;SDS011;9585;51.018;4.282;2023-02-20T07:45:01;12.18;;;6.10;;
18905;SDS011;9585;51.018;4.282;2023-02-20T07:47:30;14.27;;;6.63;;
18905;SDS011;9585;51.018;4.282;2023-02-20T07:49:57;9.05;;;5.68;;
18905;SDS011;9585;51.018;4.282;2023-02-20T07:52:25;11.82;;;6.28;;
18905;SDS011;9585;51.018;4.282;2023-02-20T07:54:53;12.50;;;6.40;;
18905;SDS011;9585;51.018;4.282;2023-02-20T07:57:20;12.82;;;5.63;;
18905;SDS011;9585;51.018;4.282;2023-02-20T07:59:48;10.82;;;5.70;;
18905;SDS011;9585;51.018;4.282;2023-02-20T08:02:15;12.93;;;6.72;;
18905;SDS011;9585;51.018;4.282;2023-02-20T08:04:44;13.50;;;5.90;;
18905;SDS011;9585;51.018;4.282;2023-02-20T08:07:11;11.63;;;6.10;;
18905;SDS011;9585;51.018;4.282;2023-02-20T08:09:39;11.52;;;6.22;;
18905;SDS011;9585;51.018;4.282;2023-02-20T08:12:06;12.10;;;6.22;;
18905;SDS011;9585;51.018;4.282;2023-02-20T08:14:34;9.50;;;5.75;;
18905;SDS011;9585;51.018;4.282;2023-02-20T08:17:01;11.75;;;5.90;;
18905;SDS011;9585;51.018;4.282;2023-02-20T08:19:29;13.70;;;5.85;;
18905;SDS011;9585;51.018;4.282;2023-02-20T08:21:57;12.68;;;5.90;;
18905;SDS011;9585;51.018;4.282;2023-02-20T08:24:25;14.05;;;6.10;;
18905;SDS011;9585;51.018;4.282;2023-02-20T08:26:52;9.40;;;5.13;;
18905;SDS011;9585;51.018;4.282;2023-02-20T08:29:20;8.38;;;5.38;;
18905;SDS011;9585;51.018;4.282;2023-02-20T08:31:47;9.35;;;5.63;;
18905;SDS011;9585;51.018;4.282;2023-02-20T08:34:15;12.05;;;6.03;;
18905;SDS011;9585;51.018;4.282;2023-02-20T08:36:42;14.50;;;5.90;;
18905;SDS011;9585;51.018;4.282;2023-02-20T08:39:11;14.07;;;5.90;;
18905;SDS011;9585;51.018;4.282;2023-02-20T08:41:42;11.05;;;5.78;;
18905;SDS011;9585;51.018;4.282;2023-02-20T08:44:10;12.32;;;5.75;;
18905;SDS011;9585;51.018;4.282;2023-02-20T08:46:44;10.43;;;5.65;;
18905;SDS011;9585;51.018;4.282;2023-02-20T08:49:12;11.98;;;5.28;;
18905;SDS011;9585;51.018;4.282;2023-02-20T08:51:42;11.32;;;5.85;;
18905;SDS011;9585;51.018;4.282;2023-02-20T08:54:11;10.73;;;5.47;;
18905;SDS011;9585;51.018;4.282;2023-02-20T08:56:39;13.57;;;6.35;;
18905;SDS011;9585;51.018;4.282;2023-02-20T08:59:07;12.82;;;5.43;;
18905;SDS011;9585;51.018;4.282;2023-02-20T09:01:34;10.95;;;6.07;;
18905;SDS011;9585;51.018;4.282;2023-02-20T09:04:01;9.32;;;5.82;;
18905;SDS011;9585;51.018;4.282;2023-02-20T09:06:29;9.15;;;5.45;;
18905;SDS011;9585;51.018;4.282;2023-02-20T09:08:56;13.15;;;5.78;;
18905;SDS011;9585;51.018;4.282;2023-02-20T09:11:26;11.10;;;5.63;;
18905;SDS011;9585;51.018;4.282;2023-02-20T09:13:53;11.52;;;5.97;;
18905;SDS011;9585;51.018;4.282;2023-02-20T09:16:23;11.27;;;6.15;;
18905;SDS011;9585;51.018;4.282;2023-02-20T09:18:51;10.95;;;6.10;;
18905;SDS011;9585;51.018;4.282;2023-02-20T09:21:20;11.55;;;6.18;;
18905;SDS011;9585;51.018;4.282;2023-02-20T09:23:47;11.40;;;5.63;;
18905;SDS011;9585;51.018;4.282;2023-02-20T09:26:14;12.68;;;5.97;;
18905;SDS011;9585;51.018;4.282;2023-02-20T09:28:43;15.88;;;6.18;;
18905;SDS011;9585;51.018;4.282;2023-02-20T09:31:11;8.90;;;5.13;;
18905;SDS011;9585;51.018;4.282;2023-02-20T09:33:42;11.48;;;5.90;;
18905;SDS011;9585;51.018;4.282;2023-02-20T09:36:10;9.15;;;6.30;;
18905;SDS011;9585;51.018;4.282;2023-02-20T09:38:38;13.90;;;6.22;;
18905;SDS011;9585;51.018;4.282;2023-02-20T09:41:05;15.02;;;6.07;;
18905;SDS011;9585;51.018;4.282;2023-02-20T09:43:46;11.20;;;6.10;;
18905;SDS011;9585;51.018;4.282;2023-02-20T09:46:20;13.18;;;6.43;;
18905;SDS011;9585;51.018;4.282;2023-02-20T09:48:52;10.30;;;5.53;;
18905;SDS011;9585;51.018;4.282;2023-02-20T09:51:26;13.07;;;6.68;;
18905;SDS011;9585;51.018;4.282;2023-02-20T09:53:57;11.40;;;6.45;;
18905;SDS011;9585;51.018;4.282;2023-02-20T09:56:32;9.50;;;5.75;;
18905;SDS011;9585;51.018;4.282;2023-02-20T09:59:05;8.73;;;5.65;;
18905;SDS011;9585;51.018;4.282;2023-02-20T10:01:36;11.52;;;5.70;;
18905;SDS011;9585;51.018;4.282;2023-02-20T10:04:10;13.57;;;5.65;;
18905;SDS011;9585;51.018;4.282;2023-02-20T10:06:42;10.55;;;5.65;;
18905;SDS011;9585;51.018;4.282;2023-02-20T10:09:12;9.85;;;5.18;;
18905;SDS011;9585;51.018;4.282;2023-02-20T10:11:44;10.50;;;5.57;;
18905;SDS011;9585;51.018;4.282;2023-02-20T10:17:25;12.75;;;5.72;;
18905;SDS011;9585;51.018;4.282;2023-02-20T10:20:01;11.05;;;5.60;;
18905;SDS011;9585;51.018;4.282;2023-02-20T10:22:35;11.90;;;5.43;;
18905;SDS011;9585;51.018;4.282;2023-02-20T10:25:13;10.73;;;5.28;;
18905;SDS011;9585;51.018;4.282;2023-02-20T10:27:53;9.93;;;6.07;;
18905;SDS011;9585;51.018;4.282;2023-02-20T10:30:28;12.23;;;5.57;;
18905;SDS011;9585;51.018;4.282;2023-02-20T10:33:01;14.25;;;5.68;;
18905;SDS011;9585;51.018;4.282;2023-02-20T10:35:39;12.43;;;5.72;;
18905;SDS011;9585;51.018;4.282;2023-02-20T10:38:10;9.30;;;5.57;;
18905;SDS011;9585;51.018;4.282;2023-02-20T10:40:42;12.05;;;5.97;;
18905;SDS011;9585;51.018;4.282;2023-02-20T10:43:15;10.32;;;5.43;;
18905;SDS011;9585;51.018;4.282;2023-02-20T10:45:50;11.88;;;5.40;;
18905;SDS011;9585;51.018;4.282;2023-02-20T10:48:21;10.10;;;5.35;;
18905;SDS011;9585;51.018;4.282;2023-02-20T10:50:53;13.00;;;5.63;;
18905;SDS011;9585;51.018;4.282;2023-02-20T10:53:33;9.98;;;5.50;;
18905;SDS011;9585;51.018;4.282;2023-02-20T10:56:06;9.05;;;5.65;;
18905;SDS011;9585;51.018;4.282;2023-02-20T10:58:37;8.45;;;5.63;;
18905;SDS011;9585;51.018;4.282;2023-02-20T11:01:13;7.82;;;5.20;;
18905;SDS011;9585;51.018;4.282;2023-02-20T11:03:46;10.07;;;5.78;;
18905;SDS011;9585;51.018;4.282;2023-02-20T11:06:19;9.00;;;5.30;;
18905;SDS011;9585;51.018;4.282;2023-02-20T11:08:47;9.18;;;5.63;;
18905;SDS011;9585;51.018;4.282;2023-02-20T11:11:24;11.45;;;5.45;;
18905;SDS011;9585;51.018;4.282;2023-02-20T11:13:59;9.13;;;5.20;;
18905;SDS011;9585;51.018;4.282;2023-02-20T11:16:30;9.10;;;5.43;;
18905;SDS011;9585;51.018;4.282;2023-02-20T11:19:03;11.50;;;5.22;;
18905;SDS011;9585;51.018;4.282;2023-02-20T11:21:34;9.07;;;5.22;;
18905;SDS011;9585;51.018;4.282;2023-02-20T11:26:59;8.35;;;4.80;;
18905;SDS011;9585;51.018;4.282;2023-02-20T11:29:34;11.05;;;5.43;;
18905;SDS011;9585;51.018;4.282;2023-02-20T11:32:23;10.15;;;5.18;;
18905;SDS011;9585;51.018;4.282;2023-02-20T11:41:09;9.60;;;4.78;;
18905;SDS011;9585;51.018;4.282;2023-02-20T11:43:48;7.00;;;4.28;;
18905;SDS011;9585;51.018;4.282;2023-02-20T11:46:32;10.55;;;4.70;;
18905;SDS011;9585;51.018;4.282;2023-02-20T11:49:02;8.70;;;4.45;;
18905;SDS011;9585;51.018;4.282;2023-02-20T11:51:32;10.57;;;4.57;;
18905;SDS011;9585;51.018;4.282;2023-02-20T11:54:06;9.43;;;4.65;;
18905;SDS011;9585;51.018;4.282;2023-02-20T11:56:57;8.57;;;4.10;;
18905;SDS011;9585;51.018;4.282;2023-02-20T11:59:31;8.40;;;4.70;;
18905;SDS011;9585;51.018;4.282;2023-02-20T12:07:51;10.70;;;4.07;;
18905;SDS011;9585;51.018;4.282;2023-02-20T12:10:23;8.70;;;4.68;;
18905;SDS011;9585;51.018;4.282;2023-02-20T12:12:54;6.13;;;4.13;;
18905;SDS011;9585;51.018;4.282;2023-02-20T12:15:23;10.23;;;4.30;;
18905;SDS011;9585;51.018;4.282;2023-02-20T12:21:07;9.88;;;3.60;;
18905;SDS011;9585;51.018;4.282;2023-02-20T12:23:42;6.50;;;4.00;;
18905;SDS011;9585;51.018;4.282;2023-02-20T12:26:21;9.27;;;3.65;;
18905;SDS011;9585;51.018;4.282;2023-02-20T12:29:05;7.35;;;3.83;;
18905;SDS011;9585;51.018;4.282;2023-02-20T12:31:47;9.38;;;4.10;;
18905;SDS011;9585;51.018;4.282;2023-02-20T12:34:37;6.05;;;3.83;;
18905;SDS011;9585;51.018;4.282;2023-02-20T12:37:20;7.90;;;4.10;;
18905;SDS011;9585;51.018;4.282;2023-02-20T12:40:00;8.95;;;3.97;;
18905;SDS011;9585;51.018;4.282;2023-02-20T12:42:37;5.97;;;3.83;;
18905;SDS011;9585;51.018;4.282;2023-02-20T12:45:17;6.50;;;3.65;;
18905;SDS011;9585;51.018;4.282;2023-02-20T12:47:58;7.07;;;4.15;;
18905;SDS011;9585;51.018;4.282;2023-02-20T12:50:39;8.27;;;4.40;;
18905;SDS011;9585;51.018;4.282;2023-02-20T12:53:25;9.07;;;4.18;;
18905;SDS011;9585;51.018;4.282;2023-02-20T12:56:06;9.07;;;4.30;;
18905;SDS011;9585;51.018;4.282;2023-02-20T12:58:47;8.55;;;4.15;;
18905;SDS011;9585;51.018;4.282;2023-02-20T13:01:19;7.90;;;4.50;;
18905;SDS011;9585;51.018;4.282;2023-02-20T13:03:51;7.13;;;4.07;;
18905;SDS011;9585;51.018;4.282;2023-02-20T13:06:31;10.60;;;4.78;;
18905;SDS011;9585;51.018;4.282;2023-02-20T13:09:05;11.00;;;4.35;;
18905;SDS011;9585;51.018;4.282;2023-02-20T13:11:42;6.35;;;4.32;;
18905;SDS011;9585;51.018;4.282;2023-02-20T13:14:18;8.30;;;4.55;;
18905;SDS011;9585;51.018;4.282;2023-02-20T13:16:58;6.93;;;3.88;;
18905;SDS011;9585;51.018;4.282;2023-02-20T13:19:35;5.65;;;4.20;;
18905;SDS011;9585;51.018;4.282;2023-02-20T13:22:06;8.30;;;4.32;;
18905;SDS011;9585;51.018;4.282;2023-02-20T13:24:35;6.70;;;3.92;;
18905;SDS011;9585;51.018;4.282;2023-02-20T13:27:04;5.55;;;3.80;;
18905;SDS011;9585;51.018;4.282;2023-02-20T13:29:34;9.45;;;3.80;;
18905;SDS011;9585;51.018;4.282;2023-02-20T13:32:19;7.93;;;3.85;;
18905;SDS011;9585;51.018;4.282;2023-02-20T13:34:50;7.70;;;4.00;;
18905;SDS011;9585;51.018;4.282;2023-02-20T13:40:36;5.57;;;3.67;;
18905;SDS011;9585;51.018;4.282;2023-02-20T13:43:18;7.50;;;4.07;;
18905;SDS011;9585;51.018;4.282;2023-02-20T13:46:09;8.18;;;3.88;;
18905;SDS011;9585;51.018;4.282;2023-02-20T13:48:42;8.25;;;3.97;;
18905;SDS011;9585;51.018;4.282;2023-02-20T13:53:59;8.40;;;4.13;;
18905;SDS011;9585;51.018;4.282;2023-02-20T13:56:46;6.95;;;3.90;;
18905;SDS011;9585;51.018;4.282;2023-02-20T13:59:19;7.20;;;4.15;;
18905;SDS011;9585;51.018;4.282;2023-02-20T14:01:53;7.70;;;3.70;;
18905;SDS011;9585;51.018;4.282;2023-02-20T14:04:27;6.68;;;3.67;;
18905;SDS011;9585;51.018;4.282;2023-02-20T14:06:54;6.40;;;3.92;;
18905;SDS011;9585;51.018;4.282;2023-02-20T14:09:23;8.93;;;3.60;;
18905;SDS011;9585;51.018;4.282;2023-02-20T14:12:01;7.63;;;3.78;;
18905;SDS011;9585;51.018;4.282;2023-02-20T14:14:33;6.07;;;3.50;;
18905;SDS011;9585;51.018;4.282;2023-02-20T14:17:04;9.38;;;3.47;;
18905;SDS011;9585;51.018;4.282;2023-02-20T14:19:37;9.50;;;3.60;;
18905;SDS011;9585;51.018;4.282;2023-02-20T14:22:21;5.65;;;3.78;;
18905;SDS011;9585;51.018;4.282;2023-02-20T14:25:01;8.00;;;3.47;;
18905;SDS011;9585;51.018;4.282;2023-02-20T14:27:47;9.32;;;3.53;;
18905;SDS011;9585;51.018;4.282;2023-02-20T14:30:15;7.70;;;4.07;;
18905;SDS011;9585;51.018;4.282;2023-02-20T14:32:45;7.28;;;3.53;;
18905;SDS011;9585;51.018;4.282;2023-02-20T14:35:24;4.93;;;3.60;;
18905;SDS011;9585;51.018;4.282;2023-02-20T14:38:06;6.13;;;3.53;;
18905;SDS011;9585;51.018;4.282;2023-02-20T14:40:43;8.60;;;4.18;;
18905;SDS011;9585;51.018;4.282;2023-02-20T14:43:14;7.00;;;3.45;;
18905;SDS011;9585;51.018;4.282;2023-02-20T14:45:44;7.15;;;3.97;;
18905;SDS011;9585;51.018;4.282;2023-02-20T14:48:23;8.45;;;4.10;;
18905;SDS011;9585;51.018;4.282;2023-02-20T14:53:40;8.48;;;4.38;;
18905;SDS011;9585;51.018;4.282;2023-02-20T14:56:08;8.70;;;4.00;;
18905;SDS011;9585;51.018;4.282;2023-02-20T14:58:38;6.60;;;4.68;;
18905;SDS011;9585;51.018;4.282;2023-02-20T15:01:27;12.90;;;5.00;;
18905;SDS011;9585;51.018;4.282;2023-02-20T15:04:03;10.57;;;4.80;;
18905;SDS011;9585;51.018;4.282;2023-02-20T15:06:37;8.35;;;4.53;;
18905;SDS011;9585;51.018;4.282;2023-02-20T15:09:07;10.15;;;4.95;;
18905;SDS011;9585;51.018;4.282;2023-02-20T15:11:35;8.43;;;4.57;;
18905;SDS011;9585;51.018;4.282;2023-02-20T15:14:17;7.40;;;4.90;;
18905;SDS011;9585;51.018;4.282;2023-02-20T15:16:46;8.07;;;4.90;;
18905;SDS011;9585;51.018;4.282;2023-02-20T15:19:20;8.25;;;5.00;;
18905;SDS011;9585;51.018;4.282;2023-02-20T15:21:58;7.10;;;4.63;;
18905;SDS011;9585;51.018;4.282;2023-02-20T15:24:29;9.77;;;4.75;;
18905;SDS011;9585;51.018;4.282;2023-02-20T15:27:14;8.52;;;4.90;;
18905;SDS011;9585;51.018;4.282;2023-02-20T15:32:37;8.32;;;4.68;;
18905;SDS011;9585;51.018;4.282;2023-02-20T15:35:11;7.45;;;4.00;;
18905;SDS011;9585;51.018;4.282;2023-02-20T15:37:41;7.65;;;4.35;;
18905;SDS011;9585;51.018;4.282;2023-02-20T15:40:15;6.47;;;4.50;;
18905;SDS011;9585;51.018;4.282;2023-02-20T15:42:45;6.78;;;4.22;;
18905;SDS011;9585;51.018;4.282;2023-02-20T15:45:16;8.60;;;4.38;;
18905;SDS011;9585;51.018;4.282;2023-02-20T15:47:43;7.35;;;4.20;;
18905;SDS011;9585;51.018;4.282;2023-02-20T15:50:11;7.75;;;4.20;;
18905;SDS011;9585;51.018;4.282;2023-02-20T15:52:38;9.95;;;4.68;;
18905;SDS011;9585;51.018;4.282;2023-02-20T15:55:05;8.43;;;4.70;;